createdAt,value
2023-01-10T00:03:56.811Z,33.03
2023-01-10T00:06:24.533Z,37.55
2023-01-10T00:08:52.040Z,34.13
2023-01-10T00:11:37.957Z,29.70
2023-01-10T00:14:05.388Z,33.10
2023-01-10T00:16:32.790Z,38.03
2023-01-10T00:19:00.218Z,32.83
2023-01-10T00:21:28.688Z,40.92
2023-01-10T00:23:58.886Z,26.98
2023-01-10T00:26:26.409Z,32.67
2023-01-10T00:28:53.952Z,45.20
2023-01-10T00:31:21.354Z,29.75
2023-01-10T00:33:48.827Z,24.30
2023-01-10T00:36:16.235Z,44.92
2023-01-10T00:38:43.710Z,32.05
2023-01-10T00:41:31.081Z,34.42
2023-01-10T00:43:58.551Z,34.90
2023-01-10T00:46:27.348Z,29.23
2023-01-10T00:48:54.929Z,34.22
2023-01-10T00:51:22.331Z,34.15
2023-01-10T00:53:49.701Z,35.33
2023-01-10T00:56:17.194Z,34.25
2023-01-10T00:58:44.865Z,40.40
2023-01-10T01:01:12.372Z,37.13
2023-01-10T01:03:39.926Z,38.97
2023-01-10T01:06:08.288Z,32.63
2023-01-10T01:08:35.868Z,44.55
2023-01-10T01:11:03.473Z,35.83
2023-01-10T01:13:30.916Z,40.58
2023-01-10T01:15:59.691Z,44.42
2023-01-10T01:18:27.882Z,27.27
2023-01-10T01:23:30.423Z,43.20
2023-01-10T01:25:58.087Z,29.55
2023-01-10T01:28:25.646Z,21.35
2023-01-10T01:30:53.417Z,42.42
2023-01-10T01:33:21.149Z,42.00
2023-01-10T01:35:49.670Z,41.30
2023-01-10T01:38:17.963Z,29.45
2023-01-10T01:40:45.563Z,35.40
2023-01-10T01:43:22.044Z,29.75
2023-01-10T01:45:49.787Z,27.98
2023-01-10T01:48:52.526Z,46.15
2023-01-10T01:51:28.112Z,33.38
2023-01-10T01:54:03.668Z,39.08
2023-01-10T01:56:52.003Z,40.60
2023-01-10T01:59:24.379Z,30.83
2023-01-10T02:01:56.064Z,33.13
2023-01-10T02:05:03.374Z,30.80
2023-01-10T02:07:37.377Z,32.70
2023-01-10T02:10:36.949Z,35.10
2023-01-10T02:13:06.756Z,31.77
2023-01-10T02:15:34.445Z,40.95
2023-01-10T02:18:03.429Z,32.05
2023-01-10T02:20:40.752Z,28.15
2023-01-10T02:23:42.711Z,39.97
2023-01-10T02:26:16.454Z,42.33
2023-01-10T02:29:07.969Z,38.10
2023-01-10T02:32:08.342Z,33.85
2023-01-10T02:34:53.862Z,32.67
2023-01-10T02:37:46.751Z,30.25
2023-01-10T02:40:24.215Z,30.05
2023-01-10T02:43:12.278Z,35.85
2023-01-10T02:45:59.358Z,39.92
2023-01-10T02:48:26.801Z,44.40
2023-01-10T02:50:58.574Z,30.80
2023-01-10T02:53:37.633Z,27.27
2023-01-10T02:56:30.326Z,34.72
2023-01-10T02:59:19.307Z,31.70
2023-01-10T03:01:46.765Z,36.60
2023-01-10T03:04:38.395Z,32.28
2023-01-10T03:07:21.524Z,26.52
2023-01-10T03:10:23.659Z,36.63
2023-01-10T03:13:07.386Z,38.35
2023-01-10T03:15:38.848Z,33.47
2023-01-10T03:18:16.459Z,31.02
2023-01-10T03:20:47.447Z,36.22
2023-01-10T03:23:16.454Z,33.00
2023-01-10T03:25:46.156Z,30.25
2023-01-10T03:28:23.530Z,38.60
2023-01-10T03:31:00.925Z,34.92
2023-01-10T03:33:31.222Z,36.35
2023-01-10T03:36:07.319Z,32.65
2023-01-10T03:38:55.949Z,34.85
2023-01-10T03:41:57.711Z,31.60
2023-01-10T03:44:43.982Z,35.83
2023-01-10T03:47:32.851Z,34.55
2023-01-10T03:50:06.581Z,27.63
2023-01-10T03:52:36.394Z,35.20
2023-01-10T03:55:05.494Z,17.90
2023-01-10T03:57:33.177Z,32.15
2023-01-10T04:00:00.838Z,42.47
2023-01-10T04:02:30.951Z,37.00
2023-01-10T04:04:59.176Z,23.98
2023-01-10T04:07:27.085Z,33.85
2023-01-10T04:09:54.619Z,31.23
2023-01-10T04:12:22.150Z,39.63
2023-01-10T04:14:49.725Z,41.83
2023-01-10T04:17:18.056Z,40.83
2023-01-10T04:19:45.704Z,29.27
2023-01-10T04:22:13.369Z,35.85
2023-01-10T04:24:40.948Z,29.65
2023-01-10T04:27:08.374Z,28.67
2023-01-10T04:29:35.895Z,26.23
2023-01-10T04:32:03.500Z,28.60
2023-01-10T04:34:30.924Z,29.40
2023-01-10T04:36:58.371Z,33.53
2023-01-10T04:39:25.808Z,33.10
2023-01-10T04:41:53.291Z,33.40
2023-01-10T04:44:20.723Z,35.67
2023-01-10T04:46:48.115Z,40.80
2023-01-10T04:49:15.523Z,25.10
2023-01-10T04:51:42.986Z,39.53
2023-01-10T04:54:10.444Z,32.80
2023-01-10T04:56:38.172Z,31.17
2023-01-10T04:59:06.579Z,27.27
2023-01-10T05:01:36.354Z,28.58
2023-01-10T05:04:03.983Z,40.95
2023-01-10T05:06:31.569Z,31.20
2023-01-10T05:08:59.236Z,43.08
2023-01-10T05:11:26.751Z,42.90
2023-01-10T05:13:54.177Z,34.67
2023-01-10T05:16:21.666Z,39.47
2023-01-10T05:18:49.194Z,34.42
2023-01-10T05:21:16.924Z,38.75
2023-01-10T05:23:44.422Z,37.65
2023-01-10T05:26:17.714Z,30.85
2023-01-10T05:28:45.632Z,44.97
2023-01-10T05:31:16.605Z,41.58
2023-01-10T05:33:48.815Z,43.63
2023-01-10T05:36:17.565Z,35.75
2023-01-10T05:38:45.025Z,33.67
2023-01-10T05:41:12.458Z,37.13
2023-01-10T05:43:39.883Z,33.78
2023-01-10T05:46:07.550Z,32.08
2023-01-10T05:48:35.069Z,36.28
2023-01-10T05:51:03.653Z,42.50
2023-01-10T05:53:31.188Z,40.30
2023-01-10T05:56:01.148Z,38.97
2023-01-10T05:58:29.619Z,37.08
2023-01-10T06:00:58.121Z,30.45
2023-01-10T06:03:26.580Z,47.92
2023-01-10T06:05:55.484Z,35.58
2023-01-10T06:08:23.922Z,38.85
2023-01-10T06:10:51.677Z,38.22
2023-01-10T06:13:19.343Z,30.58
2023-01-10T06:15:46.807Z,34.55
2023-01-10T06:18:14.516Z,30.75
2023-01-10T06:20:45.124Z,30.48
2023-01-10T06:23:12.911Z,39.85
2023-01-10T06:25:41.641Z,35.65
2023-01-10T06:28:10.563Z,36.95
2023-01-10T06:30:38.259Z,39.40
2023-01-10T06:33:07.050Z,33.38
2023-01-10T06:35:35.166Z,43.58
2023-01-10T06:40:30.210Z,37.33
2023-01-10T06:42:59.161Z,34.25
2023-01-10T06:45:26.832Z,43.25
2023-01-10T06:47:54.249Z,43.75
2023-01-10T06:50:21.825Z,40.50
2023-01-10T06:53:00.161Z,46.70
2023-01-10T06:55:28.374Z,31.48
2023-01-10T07:00:24.743Z,41.40
2023-01-10T07:02:52.174Z,43.65
2023-01-10T07:05:20.047Z,42.05
2023-01-10T07:07:47.601Z,44.47
2023-01-10T07:10:15.235Z,41.08
2023-01-10T07:12:42.663Z,45.47
2023-01-10T07:15:10.659Z,37.45
2023-01-10T07:17:38.305Z,40.47
2023-01-10T07:20:06.136Z,42.53
2023-01-10T07:22:33.623Z,60.15
2023-01-10T07:25:01.085Z,47.55
2023-01-10T07:27:31.862Z,46.28
2023-01-10T07:29:59.798Z,41.47
2023-01-10T07:32:27.527Z,54.55
2023-01-10T07:34:55.653Z,43.50
2023-01-10T07:37:23.081Z,48.97
2023-01-10T07:39:50.560Z,48.13
2023-01-10T07:42:18.006Z,53.92
2023-01-10T07:44:45.440Z,46.35
2023-01-10T07:47:12.840Z,50.42
2023-01-10T07:49:40.530Z,45.33
2023-01-10T07:52:09.192Z,48.00
2023-01-10T07:54:36.705Z,47.15
2023-01-10T07:57:04.271Z,52.92
2023-01-10T07:59:31.753Z,56.10
2023-01-10T08:01:59.333Z,48.25
2023-01-10T08:04:27.271Z,50.53
2023-01-10T08:06:55.406Z,48.97
2023-01-10T08:09:22.814Z,44.80
2023-01-10T08:11:50.223Z,48.42
2023-01-10T08:14:17.772Z,48.85
2023-01-10T08:16:45.226Z,36.00
2023-01-10T08:19:16.740Z,38.13
2023-01-10T08:21:44.545Z,41.83
2023-01-10T08:24:11.989Z,36.90
2023-01-10T08:26:39.418Z,29.90
2023-01-10T08:29:06.935Z,38.08
2023-01-10T08:31:34.458Z,28.67
2023-01-10T08:34:02.064Z,33.28
2023-01-10T08:36:30.060Z,43.22
2023-01-10T08:41:25.040Z,35.20
2023-01-10T08:43:52.842Z,22.02
2023-01-10T08:46:20.658Z,35.42
2023-01-10T08:48:50.258Z,32.50
2023-01-10T08:51:18.057Z,32.25
2023-01-10T08:53:45.462Z,32.13
2023-01-10T08:56:12.925Z,20.40
2023-01-10T08:58:40.660Z,23.05
2023-01-10T09:01:09.235Z,22.10
2023-01-10T09:03:36.711Z,23.08
2023-01-10T09:06:04.194Z,29.33
2023-01-10T09:08:31.744Z,21.83
2023-01-10T09:11:00.364Z,20.60
2023-01-10T09:13:29.224Z,25.17
2023-01-10T09:15:57.129Z,23.42
2023-01-10T09:18:25.110Z,23.67
2023-01-10T09:20:53.965Z,16.70
2023-01-10T09:23:23.273Z,23.48
2023-01-10T09:25:53.963Z,15.35
2023-01-10T09:28:24.191Z,17.35
2023-01-10T09:30:51.786Z,15.30
2023-01-10T09:33:19.840Z,13.18
2023-01-10T09:38:18.918Z,10.50
2023-01-10T09:41:24.863Z,14.18
2023-01-10T09:44:04.103Z,4.78
2023-01-10T09:46:59.297Z,8.38
2023-01-10T09:49:30.180Z,6.25
2023-01-10T09:51:59.320Z,4.90
2023-01-10T09:54:41.484Z,2.60
2023-01-10T09:57:17.657Z,1.60
2023-01-10T09:59:48.923Z,3.35
2023-01-10T10:02:36.645Z,2.38
2023-01-10T10:05:08.868Z,1.23
2023-01-10T10:07:36.492Z,3.10
2023-01-10T10:10:06.339Z,2.45
2023-01-10T10:12:48.936Z,2.60
2023-01-10T10:15:32.922Z,2.10
2023-01-10T10:18:00.269Z,4.18
2023-01-10T10:21:01.605Z,4.63
2023-01-10T10:23:44.197Z,3.25
2023-01-10T10:26:34.037Z,2.55
2023-01-10T10:29:06.149Z,3.97
2023-01-10T10:31:48.520Z,2.65
2023-01-10T10:34:37.831Z,2.15
2023-01-10T10:37:59.485Z,1.55
2023-01-10T10:40:32.325Z,2.70
2023-01-10T10:43:31.201Z,1.63
2023-01-10T10:46:05.588Z,1.73
2023-01-10T10:48:50.498Z,2.95
2023-01-10T10:51:30.123Z,2.88
2023-01-10T10:53:58.578Z,0.55
2023-01-10T10:56:27.431Z,3.80
2023-01-10T10:58:57.806Z,5.38
2023-01-10T11:01:26.918Z,4.85
2023-01-10T11:04:13.623Z,2.10
2023-01-10T11:06:48.671Z,2.78
2023-01-10T11:09:44.778Z,3.53
2023-01-10T11:12:16.120Z,3.03
2023-01-10T11:14:51.764Z,5.78
2023-01-10T11:17:25.921Z,3.38
2023-01-10T11:20:00.139Z,7.00
2023-01-10T11:22:32.283Z,2.85
2023-01-10T11:25:04.272Z,3.08
2023-01-10T11:27:45.280Z,6.07
2023-01-10T11:30:23.323Z,2.42
2023-01-10T11:35:28.513Z,3.88
2023-01-10T11:38:01.865Z,5.15
2023-01-10T11:40:31.491Z,3.13
2023-01-10T11:43:00.355Z,3.22
2023-01-10T11:45:33.292Z,5.00
2023-01-10T11:48:18.577Z,3.58
2023-01-10T11:50:51.424Z,7.78
2023-01-10T11:53:43.127Z,4.18
2023-01-10T11:56:14.236Z,6.10
2023-01-10T11:58:43.907Z,5.85
2023-01-10T12:01:35.189Z,1.88
2023-01-10T12:04:02.906Z,2.65
2023-01-10T12:06:30.729Z,3.28
2023-01-10T12:08:58.270Z,4.45
2023-01-10T12:11:28.390Z,4.07
2023-01-10T12:14:01.472Z,3.95
2023-01-10T12:16:31.602Z,3.60
2023-01-10T12:19:07.371Z,1.45
2023-01-10T12:21:39.957Z,5.35
2023-01-10T12:24:24.547Z,1.13
2023-01-10T12:26:53.969Z,4.00
2023-01-10T12:29:26.766Z,2.08
2023-01-10T12:31:56.944Z,3.45
2023-01-10T12:34:41.854Z,3.05
2023-01-10T12:37:32.791Z,8.00
2023-01-10T12:40:05.770Z,2.83
2023-01-10T12:43:21.453Z,7.15
2023-01-10T12:46:02.760Z,9.60
2023-01-10T12:48:50.763Z,10.05
2023-01-10T12:51:24.474Z,11.32
2023-01-10T12:54:06.748Z,6.45
2023-01-10T12:56:34.466Z,8.77
2023-01-10T12:59:07.627Z,13.25
2023-01-10T13:01:40.596Z,21.83
2023-01-10T13:04:15.633Z,35.90
2023-01-10T13:06:44.243Z,30.30
2023-01-10T13:09:26.021Z,31.67
2023-01-10T13:12:07.347Z,29.40
2023-01-10T13:14:58.146Z,35.03
2023-01-10T13:17:31.675Z,31.60
2023-01-10T13:20:23.643Z,32.30
2023-01-10T13:22:56.354Z,33.33
2023-01-10T13:25:27.040Z,33.10
2023-01-10T13:28:29.798Z,39.30
2023-01-10T13:31:02.197Z,48.60
2023-01-10T13:33:57.876Z,51.05
2023-01-10T13:36:52.784Z,64.55
2023-01-10T13:39:36.770Z,73.97
2023-01-10T13:42:22.584Z,79.95
2023-01-10T13:45:04.762Z,76.88
2023-01-10T13:47:45.467Z,104.75
2023-01-10T13:50:36.357Z,98.93
2023-01-10T13:53:04.324Z,94.20
2023-01-10T13:55:39.085Z,102.13
2023-01-10T13:58:15.627Z,111.20
2023-01-10T14:01:11.699Z,103.97
2023-01-10T14:03:55.332Z,105.53
2023-01-10T14:06:40.912Z,105.35
2023-01-10T14:09:14.413Z,79.15
2023-01-10T14:11:44.845Z,89.32
2023-01-10T14:14:26.813Z,99.07
2023-01-10T14:16:57.764Z,94.28
2023-01-10T14:19:32.542Z,94.32
2023-01-10T14:22:02.137Z,107.95
2023-01-10T14:24:40.013Z,83.32
2023-01-10T14:27:14.441Z,82.13
2023-01-10T14:29:49.973Z,82.30
2023-01-10T14:32:43.910Z,83.88
2023-01-10T14:35:19.316Z,81.65
2023-01-10T14:37:56.148Z,87.85
2023-01-10T14:40:34.872Z,77.63
2023-01-10T14:43:06.299Z,85.57
2023-01-10T14:46:01.782Z,89.88
2023-01-10T14:48:31.093Z,82.95
2023-01-10T14:51:17.573Z,81.60
2023-01-10T14:53:45.266Z,89.28
2023-01-10T14:56:38.854Z,74.68
2023-01-10T14:59:18.642Z,76.20
2023-01-10T15:01:54.280Z,84.35
2023-01-10T15:04:23.889Z,74.32
2023-01-10T15:06:55.863Z,68.93
2023-01-10T15:09:24.594Z,79.68
2023-01-10T15:11:53.767Z,69.82
2023-01-10T15:14:25.045Z,74.07
2023-01-10T15:16:55.334Z,84.15
2023-01-10T15:19:24.218Z,69.25
2023-01-10T15:21:54.581Z,60.60
2023-01-10T15:24:35.877Z,54.78
2023-01-10T15:27:06.219Z,68.78
2023-01-10T15:29:34.304Z,67.10
2023-01-10T15:32:19.472Z,48.30
2023-01-10T15:34:50.069Z,49.70
2023-01-10T15:37:27.273Z,58.25
2023-01-10T15:39:55.614Z,62.47
2023-01-10T15:42:23.508Z,71.28
2023-01-10T15:44:55.692Z,57.85
2023-01-10T15:47:51.125Z,56.50
2023-01-10T15:50:29.373Z,66.30
2023-01-10T15:53:02.371Z,83.07
2023-01-10T15:55:53.400Z,70.50
2023-01-10T15:58:35.784Z,87.15
2023-01-10T16:01:06.745Z,83.32
2023-01-10T16:03:39.962Z,76.32
2023-01-10T16:06:09.885Z,75.57
2023-01-10T16:08:38.957Z,78.15
2023-01-10T16:11:41.198Z,69.90
2023-01-10T16:14:09.364Z,82.68
2023-01-10T16:19:06.897Z,80.95
2023-01-10T16:21:39.768Z,94.13
2023-01-10T16:24:13.159Z,83.88
2023-01-10T16:26:40.660Z,92.30
2023-01-10T16:29:09.248Z,96.28
2023-01-10T16:31:36.784Z,89.07
2023-01-10T16:34:04.467Z,82.25
2023-01-10T16:36:31.869Z,95.80
2023-01-10T16:39:04.138Z,82.95
2023-01-10T16:41:50.033Z,73.43
2023-01-10T16:44:19.175Z,75.75
2023-01-10T16:46:47.441Z,83.53
2023-01-10T16:49:15.732Z,71.00
2023-01-10T16:54:15.076Z,68.32
2023-01-10T16:56:45.112Z,64.78
2023-01-10T16:59:14.222Z,69.93
2023-01-10T17:01:53.350Z,67.70
2023-01-10T17:04:27.982Z,60.47
2023-01-10T17:06:56.725Z,66.47
2023-01-10T17:09:26.588Z,60.22
2023-01-10T17:12:02.097Z,66.07
2023-01-10T17:14:37.280Z,69.97
2023-01-10T17:17:05.323Z,71.47
2023-01-10T17:19:32.877Z,64.93
2023-01-10T17:22:00.508Z,79.22
2023-01-10T17:24:29.690Z,48.60
2023-01-10T17:26:57.353Z,57.60
2023-01-10T17:29:25.146Z,53.25
2023-01-10T17:31:52.582Z,41.72
2023-01-10T17:34:20.124Z,35.88
2023-01-10T17:36:47.608Z,28.08
2023-01-10T17:39:15.222Z,42.60
2023-01-10T17:41:42.772Z,33.05
2023-01-10T17:44:10.284Z,46.00
2023-01-10T17:46:39.779Z,34.42
2023-01-10T17:49:07.347Z,42.92
2023-01-10T17:51:34.833Z,42.95
2023-01-10T17:54:02.249Z,37.08
2023-01-10T17:56:29.971Z,40.90
2023-01-10T17:58:57.392Z,34.90
2023-01-10T18:01:26.042Z,31.30
2023-01-10T18:03:54.119Z,37.70
2023-01-10T18:06:25.506Z,29.90
2023-01-10T18:08:53.991Z,19.30
2023-01-10T18:11:22.928Z,25.23
2023-01-10T18:13:50.677Z,19.45
2023-01-10T18:16:18.155Z,21.05
2023-01-10T18:18:45.579Z,14.93
2023-01-10T18:21:15.152Z,8.95
2023-01-10T18:23:42.682Z,12.57
2023-01-10T18:26:11.955Z,10.25
2023-01-10T18:28:42.869Z,13.95
2023-01-10T18:31:16.735Z,9.48
2023-01-10T18:33:48.222Z,15.32
2023-01-10T18:36:18.356Z,12.25
2023-01-10T18:38:46.514Z,12.35
2023-01-10T18:43:41.825Z,7.03
2023-01-10T18:46:20.317Z,8.70
2023-01-10T18:48:50.050Z,20.45
2023-01-10T18:51:19.002Z,9.10
2023-01-10T18:53:47.708Z,11.10
2023-01-10T18:56:16.076Z,10.70
2023-01-10T18:58:43.927Z,14.50
2023-01-10T19:01:14.602Z,12.25
2023-01-10T19:03:43.056Z,13.13
2023-01-10T19:06:15.761Z,14.13
2023-01-10T19:08:44.209Z,17.20
2023-01-10T19:11:15.211Z,14.02
2023-01-10T19:13:44.707Z,23.30
2023-01-10T19:16:19.212Z,18.40
2023-01-10T19:18:52.511Z,16.42
2023-01-10T19:21:20.455Z,22.55
2023-01-10T19:23:49.938Z,13.45
2023-01-10T19:26:17.448Z,11.90
2023-01-10T19:28:45.457Z,11.23
2023-01-10T19:31:17.956Z,15.13
2023-01-10T19:33:47.551Z,17.48
2023-01-10T19:36:16.407Z,11.85
2023-01-10T19:38:44.174Z,16.55
2023-01-10T19:41:14.091Z,19.10
2023-01-10T19:43:41.630Z,14.75
2023-01-10T19:46:11.032Z,23.17
2023-01-10T19:48:39.686Z,15.52
2023-01-10T19:51:12.289Z,13.68
2023-01-10T19:53:46.038Z,21.75
2023-01-10T19:56:19.603Z,12.32
2023-01-10T19:58:47.835Z,14.63
2023-01-10T20:03:46.632Z,16.85
2023-01-10T20:06:20.681Z,10.60
2023-01-10T20:08:49.265Z,17.25
2023-01-10T20:11:19.091Z,9.93
2023-01-10T20:13:48.290Z,14.15
2023-01-10T20:16:18.712Z,12.48
2023-01-10T20:18:46.562Z,11.70
2023-01-10T20:21:17.085Z,9.48
2023-01-10T20:23:45.394Z,13.15
2023-01-10T20:28:41.588Z,6.65
2023-01-10T20:31:13.419Z,7.75
2023-01-10T20:33:40.902Z,9.40
2023-01-10T20:36:12.390Z,8.15
2023-01-10T20:38:40.384Z,13.02
2023-01-10T20:41:13.915Z,11.57
2023-01-10T20:43:41.925Z,9.43
2023-01-10T20:46:15.992Z,9.02
2023-01-10T20:48:44.654Z,14.45
2023-01-10T20:51:15.935Z,6.63
2023-01-10T20:53:44.293Z,11.85
2023-01-10T20:56:17.313Z,7.78
2023-01-10T20:58:44.950Z,8.85
2023-01-10T21:01:25.096Z,10.25
2023-01-10T21:06:28.016Z,8.68
2023-01-10T21:08:55.506Z,7.57
2023-01-10T21:11:22.967Z,8.20
2023-01-10T21:13:50.383Z,10.40
2023-01-10T21:16:20.848Z,10.02
2023-01-10T21:18:48.663Z,6.15
2023-01-10T21:21:18.508Z,8.70
2023-01-10T21:23:45.962Z,10.15
2023-01-10T21:26:14.843Z,5.97
2023-01-10T21:28:47.909Z,7.55
2023-01-10T21:31:17.673Z,6.55
2023-01-10T21:33:45.340Z,9.80
2023-01-10T21:36:13.728Z,7.82
2023-01-10T21:38:41.612Z,9.18
2023-01-10T21:41:13.099Z,8.23
2023-01-10T21:43:44.369Z,7.47
2023-01-10T21:46:12.922Z,8.25
2023-01-10T21:48:40.408Z,8.32
2023-01-10T21:51:07.962Z,10.65
2023-01-10T21:53:35.388Z,10.52
2023-01-10T21:56:02.827Z,9.10
2023-01-10T21:58:30.434Z,10.68
2023-01-10T22:00:59.169Z,12.43
2023-01-10T22:03:26.888Z,11.30
2023-01-10T22:05:54.523Z,14.93
2023-01-10T22:08:22.189Z,14.50
2023-01-10T22:10:49.681Z,13.10
2023-01-10T22:13:17.089Z,16.33
2023-01-10T22:15:44.718Z,9.60
2023-01-10T22:18:12.191Z,17.48
2023-01-10T22:20:44.586Z,12.63
2023-01-10T22:23:12.041Z,9.63
2023-01-10T22:25:39.459Z,10.80
2023-01-10T22:28:06.987Z,9.90
2023-01-10T22:30:35.441Z,11.73
2023-01-10T22:33:03.113Z,15.85
2023-01-10T22:35:30.652Z,11.77
2023-01-10T22:37:58.267Z,16.75
2023-01-10T22:40:25.653Z,17.40
2023-01-10T22:42:53.721Z,17.85
2023-01-10T22:45:21.257Z,16.58
2023-01-10T22:47:49.837Z,17.35
2023-01-10T22:50:18.350Z,18.63
2023-01-10T22:52:49.991Z,14.38
2023-01-10T22:55:18.513Z,13.98
2023-01-10T22:57:47.694Z,16.23
2023-01-10T23:00:16.580Z,15.57
2023-01-10T23:02:44.119Z,15.40
2023-01-10T23:05:11.605Z,14.32
2023-01-10T23:07:39.024Z,14.35
2023-01-10T23:10:17.282Z,16.88
2023-01-10T23:12:51.958Z,15.48
2023-01-10T23:15:19.472Z,22.00
2023-01-10T23:17:46.965Z,13.00
2023-01-10T23:20:14.400Z,9.57
2023-01-10T23:22:41.825Z,8.63
2023-01-10T23:25:09.563Z,12.13
2023-01-10T23:27:38.599Z,12.02
2023-01-10T23:30:08.227Z,6.22
2023-01-10T23:32:36.146Z,11.02
2023-01-10T23:35:04.025Z,11.70
2023-01-10T23:37:31.590Z,11.27
2023-01-10T23:39:59.011Z,12.40
2023-01-10T23:42:26.436Z,14.98
2023-01-10T23:44:54.043Z,12.13
2023-01-10T23:47:21.438Z,17.38
2023-01-10T23:49:48.876Z,12.88
2023-01-10T23:52:16.830Z,13.32
2023-01-10T23:54:44.294Z,11.82
2023-01-10T23:57:11.753Z,17.63
2023-01-10T23:59:39.524Z,14.00
